| time (UTC) | temp F | wind direction | speed MPH | gust MPH | rain 1hr in | rain 24hr in | rain mn in | humidity % | barometer mb |
| 20260507134537 | 42 | 248 | 21.0 | 27.0 | 0.00 | 0.11 | 0.00 | 64 | 1016.6 |
| 20260507133517 | 41 | 248 | 21.0 | 26.0 | 0.00 | 0.11 | 0.00 | 65 | 1016.1 |
| 20260507132518 | 42 | 248 | 22.0 | 26.0 | 0.00 | 0.11 | 0.00 | 64 | 1016.0 |
| 20260507131517 | 42 | 248 | 24.0 | 31.0 | 0.00 | 0.11 | 0.00 | 61 | 1016.3 |
| 20260507130517 | 42 | 248 | 23.0 | 28.0 | 0.00 | 0.11 | 0.00 | 62 | 1016.3 |
| 20260507125517 | 42 | 248 | 23.0 | 28.0 | 0.00 | 0.11 | 0.00 | 62 | 1016.3 |
| 20260507124517 | 42 | 248 | 21.0 | 27.0 | 0.00 | 0.11 | 0.00 | 63 | 1016.9 |
| 20260507123517 | 42 | 248 | 22.0 | 28.0 | 0.00 | 0.11 | 0.00 | 63 | 1016.5 |
| 20260507122517 | 41 | 270 | 25.0 | 29.0 | 0.00 | 0.11 | 0.00 | 63 | 1016.4 |
| 20260507121517 | 41 | 270 | 22.0 | 30.0 | 0.00 | 0.11 | 0.00 | 63 | 1016.4 |
| 20260507120517 | 40 | 270 | 19.0 | 24.0 | 0.00 | 0.11 | 0.00 | 64 | 1016.5 |
| 20260507115517 | 40 | 270 | 24.0 | 29.0 | 0.00 | 0.11 | 0.00 | 63 | 1016.4 |
| 20260507114517 | 40 | 270 | 22.0 | 28.0 | 0.00 | 0.11 | 0.00 | 64 | 1016.0 |
| 20260507113517 | 40 | 248 | 24.0 | 29.0 | 0.00 | 0.11 | 0.00 | 64 | 1015.9 |
| 20260507112517 | 40 | 248 | 23.0 | 30.0 | 0.00 | 0.11 | 0.00 | 63 | 1015.8 |
| 20260507111517 | 41 | 248 | 24.0 | 30.0 | 0.00 | 0.11 | 0.00 | 62 | 1016.3 |
| 20260507110517 | 41 | 248 | 24.0 | 29.0 | 0.00 | 0.11 | 0.00 | 63 | 1016.4 |
| 20260507105517 | 40 | 248 | 24.0 | 30.0 | 0.00 | 0.11 | 0.00 | 63 | 1016.6 |
| 20260507104517 | 40 | 248 | 24.0 | 29.0 | 0.00 | 0.11 | 0.00 | 63 | 1016.5 |
| 20260507103517 | 40 | 248 | 24.0 | 30.0 | 0.00 | 0.11 | 0.00 | 62 | 1016.6 |
| 20260507102517 | 40 | 248 | 24.0 | 29.0 | 0.00 | 0.11 | 0.00 | 62 | 1016.5 |
| 20260507101517 | 41 | 248 | 26.0 | 32.0 | 0.00 | 0.11 | 0.00 | 60 | 1016.9 |
| 20260507100537 | 41 | 248 | 27.0 | 33.0 | 0.00 | 0.11 | 0.00 | 60 | 1016.9 |
| 20260507095517 | 41 | 248 | 26.0 | 31.0 | 0.00 | 0.11 | 0.00 | 61 | 1016.9 |
| 20260507094517 | 41 | 248 | 26.0 | 33.0 | 0.00 | 0.11 | 0.00 | 61 | 1016.4 |
| 20260507093517 | 41 | 248 | 27.0 | 33.0 | 0.00 | 0.11 | 0.00 | 61 | 1016.6 |
| 20260507092517 | 41 | 248 | 28.0 | 33.0 | 0.00 | 0.11 | 0.00 | 61 | 1016.6 |
| 20260507091517 | 40 | 248 | 28.0 | 34.0 | 0.00 | 0.11 | 0.00 | 63 | 1016.3 |
| 20260507090517 | 40 | 248 | 28.0 | 35.0 | 0.00 | 0.11 | 0.00 | 65 | 1016.4 |
| 20260507085517 | 40 | 248 | 27.0 | 33.0 | 0.00 | 0.11 | 0.00 | 65 | 1016.4 |
| 20260507084517 | 40 | 248 | 26.0 | 32.0 | 0.00 | 0.11 | 0.00 | 65 | 1016.4 |
| 20260507083537 | 39 | 248 | 25.0 | 29.0 | 0.00 | 0.11 | 0.00 | 66 | 1016.4 |
| 20260507082517 | 39 | 248 | 25.0 | 30.0 | 0.00 | 0.11 | 0.00 | 68 | 1016.5 |
| 20260507081517 | 39 | 248 | 25.0 | 31.0 | 0.00 | 0.11 | 0.00 | 68 | 1016.7 |
| 20260507080517 | 38 | 248 | 23.0 | 30.0 | 0.00 | 0.11 | 0.00 | 68 | 1016.3 |
| 20260507075517 | 38 | 248 | 24.0 | 29.0 | 0.00 | 0.11 | 0.00 | 67 | 1016.5 |
| 20260507074517 | 38 | 248 | 23.0 | 30.0 | 0.00 | 0.11 | 0.00 | 66 | 1016.5 |
| 20260507073537 | 38 | 248 | 22.0 | 26.0 | 0.00 | 0.11 | 0.00 | 68 | 1016.8 |
| 20260507072517 | 38 | 248 | 20.0 | 25.0 | 0.00 | 0.11 | 0.00 | 68 | 1016.8 |
| 20260507071517 | 36 | 248 | 16.0 | 19.0 | 0.00 | 0.11 | 0.00 | 70 | 1016.7 |
| 20260507070517 | 35 | 248 | 14.0 | 17.0 | 0.00 | 0.11 | 0.00 | 70 | 1016.9 |
| 20260507065557 | 36 | 248 | 15.0 | 18.0 | 0.00 | 0.11 | 0.00 | 70 | 1017.1 |
| 20260507064517 | 36 | 248 | 18.0 | 23.0 | 0.00 | 0.11 | 0.00 | 70 | 1017.2 |
| 20260507063517 | 33 | 293 | 8.0 | 12.0 | 0.00 | 0.11 | 0.00 | 75 | 1016.7 |
| 20260507062517 | 33 | 248 | 9.0 | 13.0 | 0.00 | 0.11 | 0.00 | 76 | 1016.7 |
| 20260507061517 | 32 | 225 | 9.0 | 12.0 | 0.00 | 0.11 | 0.00 | 78 | 1016.5 |
| 20260507060517 | 32 | 225 | 11.0 | 13.0 | 0.00 | 0.11 | 0.00 | 81 | 1016.4 |
| 20260507055517 | 31 | 225 | 11.0 | 14.0 | 0.00 | 0.11 | 0.11 | 83 | 1016.5 |
| 20260507054517 | 32 | 225 | 11.0 | 14.0 | 0.00 | 0.11 | 0.11 | 82 | 1016.8 |
| 20260507053516 | 32 | 203 | 13.0 | 18.0 | 0.00 | 0.11 | 0.11 | 84 | 1016.6 |
| 20260507052516 | 30 | 203 | 12.0 | 16.0 | 0.00 | 0.11 | 0.11 | 87 | 1016.3 |
| 20260507051517 | 30 | 203 | 10.0 | 13.0 | 0.00 | 0.11 | 0.11 | 88 | 1017.0 |
| 20260507050516 | 29 | 225 | 12.0 | 14.0 | 0.00 | 0.11 | 0.11 | 88 | 1016.7 |
| 20260507045536 | 29 | 225 | 11.0 | 16.0 | 0.00 | 0.11 | 0.11 | 88 | 1016.8 |
| 20260507044516 | 30 | 203 | 12.0 | 16.0 | 0.00 | 0.11 | 0.11 | 88 | 1016.7 |
| 20260507043516 | 30 | 203 | 13.0 | 18.0 | 0.00 | 0.11 | 0.11 | 88 | 1016.7 |
| 20260507042536 | 30 | 203 | 11.0 | 14.0 | 0.00 | 0.11 | 0.11 | 89 | 1016.6 |
| 20260507041517 | 29 | 203 | 6.0 | 9.0 | 0.00 | 0.11 | 0.11 | 90 | 1015.7 |
| 20260507040517 | 28 | 203 | 6.0 | 9.0 | 0.00 | 0.11 | 0.11 | 89 | 1015.8 |
| 20260507035516 | 28 | 203 | 6.0 | 13.0 | 0.00 | 0.11 | 0.11 | 90 | 1015.9 |
| 20260507034516 | 28 | 203 | 5.0 | 7.0 | 0.00 | 0.11 | 0.11 | 90 | 1015.5 |
| 20260507033516 | 28 | 203 | 4.0 | 8.0 | 0.00 | 0.11 | 0.11 | 89 | 1015.6 |
| 20260507032516 | 29 | 203 | 6.0 | 9.0 | 0.00 | 0.11 | 0.11 | 90 | 1016.1 |
| 20260507031536 | 29 | 203 | 6.0 | 10.0 | 0.00 | 0.11 | 0.11 | 89 | 1015.6 |
| 20260507030516 | 29 | 203 | 6.0 | 10.0 | 0.00 | 0.11 | 0.11 | 88 | 1015.6 |
| 20260507025536 | 29 | 203 | 6.0 | 11.0 | 0.00 | 0.11 | 0.11 | 88 | 1015.5 |
| 20260507024516 | 29 | 203 | 6.0 | 9.0 | 0.00 | 0.11 | 0.11 | 86 | 1014.8 |
| 20260507023517 | 31 | 203 | 5.0 | 9.0 | 0.00 | 0.11 | 0.11 | 85 | 1015.2 |
| 20260507022516 | 30 | 203 | 6.0 | 9.0 | 0.00 | 0.11 | 0.11 | 85 | 1015.3 |
| 20260507021537 | 31 | 203 | 8.0 | 12.0 | 0.00 | 0.11 | 0.11 | 84 | 1015.2 |
| 20260507020516 | 31 | 203 | 6.0 | 10.0 | 0.00 | 0.11 | 0.11 | 85 | 1015.4 |
| 20260507015516 | 32 | 203 | 6.0 | 10.0 | 0.00 | 0.11 | 0.11 | 85 | 1015.8 |
| 20260507014516 | 32 | 203 | 8.0 | 11.0 | 0.00 | 0.11 | 0.11 | 84 | 1015.4 |
| 20260507013536 | 32 | 203 | 10.0 | 12.0 | 0.00 | 0.11 | 0.11 | 85 | 1015.5 |
| 20260507012516 | 32 | 203 | 10.0 | 13.0 | 0.00 | 0.11 | 0.11 | 84 | 1015.6 |
| 20260507011516 | 33 | 203 | 8.0 | 11.0 | 0.00 | 0.11 | 0.11 | 83 | 1016.0 |
| 20260507010516 | 33 | 203 | 8.0 | 12.0 | 0.00 | 0.11 | 0.11 | 84 | 1016.1 |
| 20260507005536 | 33 | 203 | 8.0 | 11.0 | 0.00 | 0.11 | 0.11 | 83 | 1016.1 |
| 20260507004516 | 33 | 203 | 8.0 | 10.0 | 0.00 | 0.11 | 0.11 | 83 | 1015.7 |
| 20260507003516 | 34 | 203 | 7.0 | 9.0 | 0.00 | 0.11 | 0.11 | 83 | 1016.2 |
| 20260507002536 | 34 | 203 | 7.0 | 10.0 | 0.00 | 0.12 | 0.11 | 82 | 1016.2 |
| 20260507001516 | 34 | 203 | 7.0 | 9.0 | 0.00 | 0.12 | 0.11 | 82 | 1016.4 |
| 20260507000516 | 34 | 203 | 6.0 | 8.0 | 0.00 | 0.12 | 0.11 | 81 | 1016.3 |
| 20260506235516 | 34 | 203 | 6.0 | 10.0 | 0.00 | 0.12 | 0.11 | 80 | 1016.5 |
| 20260506234516 | 34 | 203 | 6.0 | 9.0 | 0.00 | 0.12 | 0.11 | 80 | 1016.5 |
| 20260506233516 | 34 | 203 | 7.0 | 10.0 | 0.00 | 0.12 | 0.11 | 80 | 1016.7 |
| 20260506232516 | 33 | 203 | 10.0 | 14.0 | 0.00 | 0.12 | 0.11 | 79 | 1016.8 |
| 20260506231536 | 34 | 203 | 9.0 | 12.0 | 0.00 | 0.13 | 0.11 | 79 | 1016.7 |
| 20260506230536 | 34 | 203 | 9.0 | 12.0 | 0.00 | 0.13 | 0.11 | 79 | 1017.1 |
| 20260506225516 | 34 | 203 | 9.0 | 11.0 | 0.00 | 0.13 | 0.11 | 80 | 1017.1 |
| 20260506224536 | 34 | 203 | 7.0 | 11.0 | 0.00 | 0.14 | 0.11 | 79 | 1017.1 |
| 20260506223536 | 35 | 203 | 6.0 | 9.0 | 0.00 | 0.14 | 0.11 | 80 | 1017.1 |
| 20260506222536 | 35 | 203 | 6.0 | 9.0 | 0.00 | 0.14 | 0.11 | 81 | 1017.2 |
| 20260506221516 | 35 | 203 | 5.0 | 8.0 | 0.00 | 0.15 | 0.11 | 82 | 1017.8 |
| 20260506220516 | 35 | 203 | 4.0 | 7.0 | 0.00 | 0.15 | 0.11 | 83 | 1018.1 |
| 20260506215516 | 35 | 203 | 4.0 | 8.0 | 0.00 | 0.15 | 0.11 | 83 | 1018.1 |
| 20260506214516 | 35 | 203 | 4.0 | 8.0 | 0.00 | 0.15 | 0.11 | 82 | 1018.0 |
| 20260506213536 | 34 | 203 | 5.0 | 8.0 | 0.00 | 0.16 | 0.11 | 82 | 1018.1 |
| 20260506212516 | 34 | 203 | 5.0 | 7.0 | 0.00 | 0.16 | 0.11 | 82 | 1018.3 |
| 20260506211556 | 34 | 203 | 4.0 | 6.0 | 0.00 | 0.17 | 0.11 | 82 | 1018.4 |
| 20260506210516 | 34 | 203 | 5.0 | 9.0 | 0.00 | 0.17 | 0.11 | 82 | 1018.5 |
| 20260506205516 | 34 | 203 | 5.0 | 8.0 | 0.00 | 0.17 | 0.11 | 81 | 1018.2 |
| 20260506204516 | 33 | 203 | 5.0 | 12.0 | 0.00 | 0.17 | 0.11 | 82 | 1018.8 |
| 20260506203516 | 33 | 180 | 5.0 | 9.0 | 0.00 | 0.18 | 0.11 | 81 | 1018.7 |
| 20260506202516 | 33 | 180 | 5.0 | 10.0 | 0.00 | 0.18 | 0.11 | 81 | 1018.9 |
| 20260506201556 | 34 | 203 | 5.0 | 8.0 | 0.00 | 0.19 | 0.11 | 82 | 1019.2 |
| 20260506200516 | 34 | 203 | 4.0 | 7.0 | 0.00 | 0.20 | 0.11 | 82 | 1019.4 |
| 20260506195516 | 33 | 180 | 5.0 | 9.0 | 0.00 | 0.21 | 0.11 | 81 | 1019.4 |
| 20260506194516 | 33 | 180 | 4.0 | 8.0 | 0.00 | 0.22 | 0.11 | 82 | 1019.5 |
| 20260506193516 | 33 | 180 | 5.0 | 10.0 | 0.00 | 0.24 | 0.11 | 83 | 1019.4 |
| 20260506192515 | 33 | 180 | 5.0 | 7.0 | 0.00 | 0.25 | 0.11 | 86 | 1019.5 |
| 20260506191518 | 33 | 180 | 5.0 | 9.0 | 0.00 | 0.26 | 0.11 | 87 | 1019.5 |
| 20260506190518 | 33 | 203 | 4.0 | 6.0 | 0.00 | 0.27 | 0.11 | 88 | 1019.5 |
| 20260506185538 | 33 | 203 | 4.0 | 6.0 | 0.00 | 0.28 | 0.11 | 89 | 1019.6 |
| 20260506184518 | 33 | 203 | 4.0 | 7.0 | 0.00 | 0.29 | 0.11 | 90 | 1020.1 |
| 20260506183517 | 33 | 203 | 2.0 | 5.0 | 0.00 | 0.30 | 0.11 | 91 | 1019.8 |
| 20260506182517 | 32 | 225 | 3.0 | 6.0 | 0.00 | 0.32 | 0.11 | 91 | 1019.8 |
| 20260506181518 | 32 | 225 | 3.0 | 5.0 | 0.00 | 0.33 | 0.11 | 92 | 1019.8 |
| 20260506180518 | 31 | 225 | 4.0 | 5.0 | 0.00 | 0.35 | 0.11 | 93 | 1019.9 |
| 20260506175517 | 31 | 225 | 4.0 | 6.0 | 0.00 | 0.36 | 0.11 | 94 | 1020.1 |
| 20260506174518 | 33 | 23 | 2.0 | 3.0 | 0.00 | 0.38 | 0.11 | 94 | 1020.1 |
| 20260506173518 | 33 | 0.0 | 1.0 | 0.00 | 0.40 | 0.11 | 95 | 1020.5 | |
| 20260506172537 | 33 | 23 | 1.0 | 2.0 | 0.00 | 0.41 | 0.11 | 93 | 1020.4 |
| 20260506171538 | 35 | 0.0 | 1.0 | 0.01 | 0.43 | 0.11 | 95 | 1020.9 | |
| 20260506170518 | 34 | 23 | 1.0 | 2.0 | 0.01 | 0.46 | 0.11 | 95 | 1020.3 |
| 20260506165518 | 34 | 23 | 2.0 | 4.0 | 0.02 | 0.48 | 0.11 | 95 | 1020.2 |
| 20260506164518 | 34 | 0 | 1.0 | 3.0 | 0.03 | 0.50 | 0.11 | 95 | 1020.3 |
| 20260506163518 | 33 | 0 | 1.0 | 3.0 | 0.04 | 0.53 | 0.11 | 95 | 1020.2 |
| 20260506162517 | 32 | 0 | 3.0 | 4.0 | 0.06 | 0.55 | 0.11 | 94 | 1019.7 |
| 20260506161518 | 32 | 0 | 4.0 | 5.0 | 0.06 | 0.56 | 0.10 | 94 | 1019.5 |
| 20260506160517 | 31 | 0 | 5.0 | 6.0 | 0.06 | 0.59 | 0.10 | 94 | 1019.4 |
| 20260506155518 | 30 | 0 | 4.0 | 5.0 | 0.06 | 0.62 | 0.09 | 95 | 1019.0 |
| 20260506154537 | 30 | 0 | 4.0 | 5.0 | 0.07 | 0.65 | 0.08 | 95 | 1019.0 |
| 20260506153538 | 29 | 338 | 5.0 | 6.0 | 0.07 | 0.69 | 0.07 | 95 | 1018.7 |
| 20260506152517 | 29 | 338 | 4.0 | 6.0 | 0.05 | 0.67 | 0.05 | 95 | 1018.6 |
| 20260506151518 | 28 | 338 | 5.0 | 6.0 | 0.04 | 0.66 | 0.04 | 95 | 1018.6 |
| 20260506150538 | 28 | 338 | 5.0 | 8.0 | 0.04 | 0.66 | 0.04 | 95 | 1018.6 |
| 20260506145517 | 27 | 338 | 6.0 | 8.0 | 0.03 | 0.65 | 0.03 | 95 | 1018.2 |
| 20260506144517 | 27 | 338 | 4.0 | 6.0 | 0.01 | 0.63 | 0.01 | 95 | 1018.1 |
| 20260506143518 | 27 | 338 | 5.0 | 6.0 | 0.00 | 0.62 | 0.00 | 95 | 1018.0 |
| 20260506142517 | 26 | 338 | 4.0 | 5.0 | 0.00 | 0.62 | 0.00 | 95 | 1018.0 |
| 20260506141517 | 26 | 315 | 4.0 | 5.0 | 0.00 | 0.62 | 0.00 | 95 | 1018.0 |
| 20260506140517 | 26 | 338 | 4.0 | 5.0 | 0.00 | 0.62 | 0.00 | 96 | 1018.0 |
| 20260506135517 | 26 | 338 | 4.0 | 5.0 | 0.00 | 0.62 | 0.00 | 95 | 1017.9 |